Home > Products > Valid Products > TAF

000
FTUS45 KCYS 041120
TAFRWL
TAF
KRWL 041120Z 0412/0512 VRB05KT P6SM SCT100
     FM042000 27012G18KT P6SM VCTS BKN100CB=



000
FTUS45 KCYS 041120
TAFLAR
TAF
KLAR 041120Z 0412/0512 16010KT P6SM BKN070
     FM041400 23007KT P6SM SCT100
     FM041800 32014KT P6SM VCTS BKN060CB
     FM050200 17008KT P6SM SCT050=



000
FTUS45 KCYS 041120
TAFCYS
TAF
KCYS 041120Z 0412/0512 VRB05KT P6SM BKN100
     FM041500 27011KT P6SM SCT100
     FM041900 32012KT P6SM VCTS BKN080CB
     FM050400 26008KT P6SM SCT060=



000
FTUS45 KCYS 040526
TAFLAR
TAF
KLAR 040526Z 0406/0506 16010KT P6SM BKN070
     FM041200 23007KT P6SM SCT100
     FM041800 32012G18KT P6SM VCTS BKN080CB=



000
FTUS45 KCYS 040526
TAFRWL
TAF
KRWL 040526Z 0406/0506 07006KT P6SM SCT100
     FM042000 27012G18KT P6SM VCTS BKN100CB=



000
FTUS45 KCYS 040526
TAFCYS
TAF
KCYS 040526Z 0406/0506 VRB05KT P6SM BKN100
     FM041500 27011KT P6SM SCT100
     FM041900 32012G20KT P6SM VCTS BKN080CB=



000
FTUS45 KCYS 040526
TAFCYS
TAF
KCYS 040526Z 0406/0506 VRB05KT P6SM BKN100
     FM041500 27011KT P6SM SCT100
     FM041900 32012G20KT P6SM VCTS BKN080CB=



000
FTUS45 KCYS 040526
TAFRWL
TAF
KRWL 040526Z 0406/0506 07006KT P6SM SCT100
     FM042000 27012G18KT P6SM VCTS BKN100CB=



000
FTUS45 KCYS 040526
TAFLAR
TAF
KLAR 040526Z 0406/0506 16010KT P6SM BKN070
     FM041200 23007KT P6SM SCT100
     FM041800 32012G18KT P6SM VCTS BKN080CB=



000
FTUS45 KCYS 032343
TAFCYS
TAF
KCYS 032343Z 0400/0424 15010KT P6SM VCTS FEW050CB
     FM040600 22005KT P6SM BKN100
     FM041500 34012G18KT P6SM SCT100
     FM041800 35012G20KT P6SM VCTS BKN080CB=



000
FTUS45 KCYS 032343
TAFLAR
TAF
KLAR 032343Z 0400/0424 15012KT P6SM VCTS SCT070CB
     FM040600 18010KT P6SM BKN070
     FM041200 23007KT P6SM SCT100
     FM041800 32012G18KT P6SM VCTS BKN080CB=



000
FTUS45 KCYS 032343
TAFRWL
TAF
KRWL 032343Z 0400/0424 VRB05KT P6SM FEW100
     FM040600 27007KT P6SM FEW100
     FM041800 27012G18KT P6SM VCTS BKN100CB=



000
FTUS45 KCYS 032343
TAFLAR
TAF
KLAR 032343Z 0400/0424 15012KT P6SM VCTS SCT070CB
     FM040600 18010KT P6SM BKN070
     FM041200 23007KT P6SM SCT100
     FM041800 32012G18KT P6SM VCTS BKN080CB=



000
FTUS45 KCYS 032343
TAFCYS
TAF
KCYS 032343Z 0400/0424 15010KT P6SM VCTS FEW050CB
     FM040600 22005KT P6SM BKN100
     FM041500 34012G18KT P6SM SCT100
     FM041800 35012G20KT P6SM VCTS BKN080CB=



000
FTUS45 KCYS 032343
TAFRWL
TAF
KRWL 032343Z 0400/0424 VRB05KT P6SM FEW100
     FM040600 27007KT P6SM FEW100
     FM041800 27012G18KT P6SM VCTS BKN100CB=



000
FTUS45 KCYS 031720
TAFLAR
TAF
KLAR 031720Z 0318/0418 04008KT P6SM FEW150
     FM032000 13010KT P6SM VCTS SCT100CB
     FM040200 14016G24KT P6SM BKN250
     FM041000 18008KT P6SM BKN250=



000
FTUS45 KCYS 031720
TAFCYS
TAF
KCYS 031720Z 0318/0418 21008KT P6SM FEW050
     FM032000 15011KT P6SM VCTS SCT070CB BKN120
      TEMPO 0320/0322 VRB15G35KT 5SM -TSRA SCT020 BKN050CB
     FM040300 18011KT P6SM BKN250=



000
FTUS45 KCYS 031720
TAFRWL
TAF
KRWL 031720Z 0318/0418 30005KT P6SM SKC
     FM032000 27010KT P6SM FEW100 SCT200
     FM040300 VRB05KT P6SM BKN200=



000
FTUS45 KCYS 031720
TAFLAR
TAF
KLAR 031720Z 0318/0418 04008KT P6SM FEW150
     FM032000 13010KT P6SM VCTS SCT100CB
     FM040200 14016G24KT P6SM BKN250
     FM041000 18008KT P6SM BKN250=



000
FTUS45 KCYS 031720
TAFCYS
TAF
KCYS 031720Z 0318/0418 21008KT P6SM FEW050
     FM032000 15011KT P6SM VCTS SCT070CB BKN120
      TEMPO 0320/0322 VRB15G35KT 5SM -TSRA SCT020 BKN050CB
     FM040300 18011KT P6SM BKN250=



000
FTUS45 KCYS 031720
TAFRWL
TAF
KRWL 031720Z 0318/0418 30005KT P6SM SKC
     FM032000 27010KT P6SM FEW100 SCT200
     FM040300 VRB05KT P6SM BKN200=



000
FTUS45 KCYS 031720
TAFCYS
TAF
KCYS 031720Z 0318/0418 21008KT P6SM FEW050
     FM032000 15011KT P6SM VCTS SCT070CB BKN120
      TEMPO 0320/0322 VRB15G35KT 5SM -TSRA SCT020 BKN050CB
     FM040300 18011KT P6SM BKN250=



000
FTUS45 KCYS 031720
TAFLAR
TAF
KLAR 031720Z 0318/0418 04008KT P6SM FEW150
     FM032000 13010KT P6SM VCTS SCT100CB
     FM040200 14016G24KT P6SM BKN250
     FM041000 18008KT P6SM BKN250=



000
FTUS45 KCYS 031720
TAFCYS
TAF
KCYS 031720Z 0318/0418 21008KT P6SM FEW050
     FM032000 15011KT P6SM VCTS SCT070CB BKN120
      TEMPO 0320/0322 VRB15G35KT 5SM -TSRA SCT020 BKN050CB
     FM040300 18011KT P6SM BKN250=



000
FTUS45 KCYS 031720
TAFRWL
TAF
KRWL 031720Z 0318/0418 30005KT P6SM SKC
     FM032000 27010KT P6SM FEW100 SCT200
     FM040300 VRB05KT P6SM BKN200=



000
FTUS45 KCYS 031720
TAFLAR
TAF
KLAR 031720Z 0318/0418 04008KT P6SM FEW150
     FM032000 13010KT P6SM VCTS SCT100CB
     FM040200 14016G24KT P6SM BKN250
     FM041000 18008KT P6SM BKN250=



000
FTUS45 KCYS 031720
TAFRWL
TAF
KRWL 031720Z 0318/0418 30005KT P6SM SKC
     FM032000 27010KT P6SM FEW100 SCT200
     FM040300 VRB05KT P6SM BKN200=



000
FTUS45 KCYS 031131
TAFRWL
TAF
KRWL 031131Z 0312/0412 05005KT P6SM SKC
     FM032000 27010KT P6SM FEW100 SCT200
     FM040300 VRB05KT P6SM BKN200=



000
FTUS45 KCYS 031131
TAFRWL
TAF
KRWL 031131Z 0312/0412 05005KT P6SM SKC
     FM032000 27010KT P6SM FEW100 SCT200
     FM040300 VRB05KT P6SM BKN200=



000
FTUS45 KCYS 031131
TAFRWL
TAF
KRWL 031131Z 0312/0412 05005KT P6SM SKC
     FM032000 27010KT P6SM FEW100 SCT200
     FM040300 VRB05KT P6SM BKN200=



000
FTUS45 KCYS 031131
TAFLAR
TAF
KLAR 031131Z 0312/0412 17007KT P6SM FEW150
     FM032000 13010KT P6SM VCTS SCT100CB
     FM040200 14016G24KT P6SM BKN250
     FM041000 18008KT P6SM BKN250=



000
FTUS45 KCYS 031131
TAFLAR
TAF
KLAR 031131Z 0312/0412 17007KT P6SM FEW150
     FM032000 13010KT P6SM VCTS SCT100CB
     FM040200 14016G24KT P6SM BKN250
     FM041000 18008KT P6SM BKN250=



000
FTUS45 KCYS 031131
TAFRWL
TAF
KRWL 031131Z 0312/0412 05005KT P6SM SKC
     FM032000 27010KT P6SM FEW100 SCT200
     FM040300 VRB05KT P6SM BKN200=



000
FTUS45 KCYS 031131
TAFCYS
TAF
KCYS 031131Z 0312/0412 VRB05KT P6SM SCT150
     FM031500 14008KT P6SM FEW050
     FM032100 15011KT P6SM VCTS SCT070CB BKN120
     FM040300 18011KT P6SM BKN250=



000
FTUS45 KCYS 031131
TAFCYS
TAF
KCYS 031131Z 0312/0412 VRB05KT P6SM SCT150
     FM031500 14008KT P6SM FEW050
     FM032100 15011KT P6SM VCTS SCT070CB BKN120
     FM040300 18011KT P6SM BKN250=



000
FTUS45 KCYS 031131
TAFCYS
TAF
KCYS 031131Z 0312/0412 VRB05KT P6SM SCT150
     FM031500 14008KT P6SM FEW050
     FM032100 15011KT P6SM VCTS SCT070CB BKN120
     FM040300 18011KT P6SM BKN250=



000
FTUS45 KCYS 031131
TAFLAR
TAF
KLAR 031131Z 0312/0412 17007KT P6SM FEW150
     FM032000 13010KT P6SM VCTS SCT100CB
     FM040200 14016G24KT P6SM BKN250
     FM041000 18008KT P6SM BKN250=



000
FTUS45 KCYS 031131
TAFLAR
TAF
KLAR 031131Z 0312/0412 17007KT P6SM FEW150
     FM032000 13010KT P6SM VCTS SCT100CB
     FM040200 14016G24KT P6SM BKN250
     FM041000 18008KT P6SM BKN250=



000
FTUS45 KCYS 031131
TAFCYS
TAF
KCYS 031131Z 0312/0412 VRB05KT P6SM SCT150
     FM031500 14008KT P6SM FEW050
     FM032100 15011KT P6SM VCTS SCT070CB BKN120
     FM040300 18011KT P6SM BKN250=



000
FTUS45 KCYS 030520
TAFCYS
TAF
KCYS 030520Z 0306/0406 VRB05KT P6SM SCT150
     FM031500 16007KT P6SM FEW050
     FM032100 15010G17KT P6SM VCTS SCT070CB BKN120=



000
FTUS45 KCYS 030520
TAFLAR
TAF
KLAR 030520Z 0306/0406 15005KT P6SM FEW150
     FM032000 09010KT P6SM SCT070 BKN120=



000
FTUS45 KCYS 030520
TAFLAR
TAF
KLAR 030520Z 0306/0406 15005KT P6SM FEW150
     FM032000 09010KT P6SM SCT070 BKN120=



000
FTUS45 KCYS 030520
TAFCYS
TAF
KCYS 030520Z 0306/0406 VRB05KT P6SM SCT150
     FM031500 16007KT P6SM FEW050
     FM032100 15010G17KT P6SM VCTS SCT070CB BKN120=



000
FTUS45 KCYS 030520
TAFRWL
TAF
KRWL 030520Z 0306/0406 05005KT P6SM FEW150
     FM032000 30010KT P6SM SCT100=



000
FTUS45 KCYS 030520
TAFCYS
TAF
KCYS 030520Z 0306/0406 VRB05KT P6SM SCT150
     FM031500 16007KT P6SM FEW050
     FM032100 15010G17KT P6SM VCTS SCT070CB BKN120=



000
FTUS45 KCYS 030520
TAFCYS
TAF
KCYS 030520Z 0306/0406 VRB05KT P6SM SCT150
     FM031500 16007KT P6SM FEW050
     FM032100 15010G17KT P6SM VCTS SCT070CB BKN120=



000
FTUS45 KCYS 030520
TAFRWL
TAF
KRWL 030520Z 0306/0406 05005KT P6SM FEW150
     FM032000 30010KT P6SM SCT100=



000
FTUS45 KCYS 030343 AAB
TAFCYS
TAF AMD
KCYS 030343Z 0304/0324 VRB05KT P6SM BKN060 BKN150
     FM030800 16007KT P6SM FEW050
     FM032100 15012KT P6SM VCTS SCT050CB BKN150=



000
FTUS45 KCYS 030343 AAB
TAFCYS
TAF AMD
KCYS 030343Z 0304/0324 VRB05KT P6SM BKN060 BKN150
     FM030800 16007KT P6SM FEW050
     FM032100 15012KT P6SM VCTS SCT050CB BKN150=



000
FTUS45 KCYS 030255 AAA
TAFRWL
TAF AMD
KRWL 030255Z 0303/0324 VRB05KT P6SM VCTS SCT050CB BKN100
     FM030500 05007KT P6SM SCT150
     FM032000 30010KT P6SM VCTS SCT070CB=



000
FTUS45 KCYS 030255 AAA
TAFRWL
TAF AMD
KRWL 030255Z 0303/0324 VRB05KT P6SM VCTS SCT050CB BKN100
     FM030500 05007KT P6SM SCT150
     FM032000 30010KT P6SM VCTS SCT070CB=



000
FTUS45 KCYS 030255 AAA
TAFRWL
TAF AMD
KRWL 030255Z 0303/0324 VRB05KT P6SM VCTS SCT050CB BKN100
     FM030500 05007KT P6SM SCT150
     FM032000 30010KT P6SM VCTS SCT070CB=



000
FTUS45 KCYS 030255 AAA
TAFRWL
TAF AMD
KRWL 030255Z 0303/0324 VRB05KT P6SM VCTS SCT050CB BKN100
     FM030500 05007KT P6SM SCT150
     FM032000 30010KT P6SM VCTS SCT070CB=



000
FTUS45 KCYS 030110 AAA
TAFLAR
TAF AMD
KLAR 030110Z 0301/0324 14012KT P6SM VCTS SCT050CB OVC080
     FM030300 12009KT P6SM BKN150
     FM030800 16006KT P6SM SKC
     FM032000 04012KT P6SM VCTS SCT050CB BKN150=



000
FTUS45 KCYS 030110 AAA
TAFLAR
TAF AMD
KLAR 030110Z 0301/0324 14012KT P6SM VCTS SCT050CB OVC080
     FM030300 12009KT P6SM BKN150
     FM030800 16006KT P6SM SKC
     FM032000 04012KT P6SM VCTS SCT050CB BKN150=



000
FTUS45 KCYS 022339
TAFLAR
TAF
KLAR 022339Z 0300/0324 09012KT P6SM VCTS SCT050CB OVC080
     FM030100 12009KT P6SM BKN150
     FM030800 16006KT P6SM SKC
     FM032000 04012KT P6SM VCTS SCT050CB BKN150=



000
FTUS45 KCYS 022339
TAFRWL
TAF
KRWL 022339Z 0300/0324 08010KT P6SM VCTS SCT050CB BKN150
      TEMPO 0300/0303 VRB20G35KT 5SM TSRA OVC050CB
     FM030300 05007KT P6SM SCT150
     FM032000 30010KT P6SM VCTS SCT070CB=



000
FTUS45 KCYS 022339
TAFRWL
TAF
KRWL 022339Z 0300/0324 08010KT P6SM VCTS SCT050CB BKN150
      TEMPO 0300/0303 VRB20G35KT 5SM TSRA OVC050CB
     FM030300 05007KT P6SM SCT150
     FM032000 30010KT P6SM VCTS SCT070CB=



000
FTUS45 KCYS 022339
TAFLAR
TAF
KLAR 022339Z 0300/0324 09012KT P6SM VCTS SCT050CB OVC080
     FM030100 12009KT P6SM BKN150
     FM030800 16006KT P6SM SKC
     FM032000 04012KT P6SM VCTS SCT050CB BKN150=



000
FTUS45 KCYS 022339
TAFCYS
TAF
KCYS 022339Z 0300/0324 07010KT P6SM VCTS SCT050CB BKN150
     FM030200 16007KT P6SM FEW050
     FM032100 15012KT P6SM VCTS SCT050CB BKN150=



000
FTUS45 KCYS 022339
TAFCYS
TAF
KCYS 022339Z 0300/0324 07010KT P6SM VCTS SCT050CB BKN150
     FM030200 16007KT P6SM FEW050
     FM032100 15012KT P6SM VCTS SCT050CB BKN150=



000
FTUS45 KCYS 022243 AAA
TAFLAR
TAF AMD
KLAR 022243Z 0223/0318 04020G30KT P6SM VCTS BKN080CB
     FM030100 12007KT P6SM BKN100
     FM030800 16006KT P6SM FEW250=



000
FTUS45 KCYS 021720
TAFCYS
TAF
KCYS 021720Z 0218/0318 28008KT P6SM SCT060
     FM022000 03010KT P6SM VCTS BKN050CB
     FM030200 VRB05KT P6SM OVC050
     FM030700 27008KT P6SM SCT050=



000
FTUS45 KCYS 021720
TAFCYS
TAF
KCYS 021720Z 0218/0318 28008KT P6SM SCT060
     FM022000 03010KT P6SM VCTS BKN050CB
     FM030200 VRB05KT P6SM OVC050
     FM030700 27008KT P6SM SCT050=



000
FTUS45 KCYS 021720
TAFRWL
TAF
KRWL 021720Z 0218/0318 03008KT P6SM BKN100
     FM022200 01008KT P6SM VCTS BKN100CB
     FM030400 05007KT P6SM SCT100 BKN200=



000
FTUS45 KCYS 021720
TAFCYS
TAF
KCYS 021720Z 0218/0318 28008KT P6SM SCT060
     FM022000 03010KT P6SM VCTS BKN050CB
     FM030200 VRB05KT P6SM OVC050
     FM030700 27008KT P6SM SCT050=



000
FTUS45 KCYS 021720
TAFRWL
TAF
KRWL 021720Z 0218/0318 03008KT P6SM BKN100
     FM022200 01008KT P6SM VCTS BKN100CB
     FM030400 05007KT P6SM SCT100 BKN200=



000
FTUS45 KCYS 021720
TAFLAR
TAF
KLAR 021720Z 0218/0318 05006KT P6SM SCT015 SCT060
     FM022000 04010G17KT P6SM VCTS BKN080CB
     FM030300 12007KT P6SM BKN100
     FM030800 16006KT P6SM FEW250=



000
FTUS45 KCYS 021720
TAFLAR
TAF
KLAR 021720Z 0218/0318 05006KT P6SM SCT015 SCT060
     FM022000 04010G17KT P6SM VCTS BKN080CB
     FM030300 12007KT P6SM BKN100
     FM030800 16006KT P6SM FEW250=



000
FTUS45 KCYS 021720
TAFCYS
TAF
KCYS 021720Z 0218/0318 28008KT P6SM SCT060
     FM022000 03010KT P6SM VCTS BKN050CB
     FM030200 VRB05KT P6SM OVC050
     FM030700 27008KT P6SM SCT050=



000
FTUS45 KCYS 021720
TAFRWL
TAF
KRWL 021720Z 0218/0318 03008KT P6SM BKN100
     FM022200 01008KT P6SM VCTS BKN100CB
     FM030400 05007KT P6SM SCT100 BKN200=



000
FTUS45 KCYS 021720
TAFLAR
TAF
KLAR 021720Z 0218/0318 05006KT P6SM SCT015 SCT060
     FM022000 04010G17KT P6SM VCTS BKN080CB
     FM030300 12007KT P6SM BKN100
     FM030800 16006KT P6SM FEW250=



000
FTUS45 KCYS 021720
TAFRWL
TAF
KRWL 021720Z 0218/0318 03008KT P6SM BKN100
     FM022200 01008KT P6SM VCTS BKN100CB
     FM030400 05007KT P6SM SCT100 BKN200=



000
FTUS45 KCYS 021720
TAFLAR
TAF
KLAR 021720Z 0218/0318 05006KT P6SM SCT015 SCT060
     FM022000 04010G17KT P6SM VCTS BKN080CB
     FM030300 12007KT P6SM BKN100
     FM030800 16006KT P6SM FEW250=



000
FTUS45 KCYS 021422 AAB
TAFLAR
TAF AMD
KLAR 021422Z 0214/0312 17008KT P6SM SCT007 BKN080
     FM021500 05006KT P6SM SCT015 SCT060
     FM022000 04010G17KT P6SM VCTS BKN080CB
     FM030300 12007KT P6SM BKN100
     FM030800 16006KT P6SM FEW250=



000
FTUS45 KCYS 021422 AAB
TAFLAR
TAF AMD
KLAR 021422Z 0214/0312 17008KT P6SM SCT007 BKN080
     FM021500 05006KT P6SM SCT015 SCT060
     FM022000 04010G17KT P6SM VCTS BKN080CB
     FM030300 12007KT P6SM BKN100
     FM030800 16006KT P6SM FEW250=



000
FTUS45 KCYS 021336 AAB
TAFCYS
TAF AMD
KCYS 021336Z 0214/0312 26010KT P6SM SCT007 BKN060
     FM021700 11009G17KT P6SM BKN050
     FM022000 09010KT P6SM VCTS BKN050CB
     FM030200 VRB05KT P6SM OVC050=



000
FTUS45 KCYS 021336 AAB
TAFCYS
TAF AMD
KCYS 021336Z 0214/0312 26010KT P6SM SCT007 BKN060
     FM021700 11009G17KT P6SM BKN050
     FM022000 09010KT P6SM VCTS BKN050CB
     FM030200 VRB05KT P6SM OVC050=



000
FTUS45 KCYS 021334 AAA
TAFLAR
TAF AMD
KLAR 021334Z 0214/0312 21008KT P6SM BKN007 BKN080
     FM021500 05006KT P6SM SCT015 SCT060
     FM022000 04010G17KT P6SM VCTS BKN080CB
     FM030300 12007KT P6SM BKN100
     FM030800 16006KT P6SM FEW250=



000
FTUS45 KCYS 021334 AAA
TAFLAR
TAF AMD
KLAR 021334Z 0214/0312 21008KT P6SM BKN007 BKN080
     FM021500 05006KT P6SM SCT015 SCT060
     FM022000 04010G17KT P6SM VCTS BKN080CB
     FM030300 12007KT P6SM BKN100
     FM030800 16006KT P6SM FEW250=



000
FTUS45 KCYS 021334 AAA
TAFLAR
TAF AMD
KLAR 021334Z 0214/0312 21008KT P6SM BKN007 BKN080
     FM021500 05006KT P6SM SCT015 SCT060
     FM022000 04010G17KT P6SM VCTS BKN080CB
     FM030300 12007KT P6SM BKN100
     FM030800 16006KT P6SM FEW250=



000
FTUS45 KCYS 021156 CCB
TAFCYS
TAF COR
KCYS 021156Z 0212/0312 26007KT P6SM OVC003
     FM021500 VRB05KT P6SM SCT007 SCT060
     FM021700 11009G17KT P6SM BKN050
     FM022000 09010KT P6SM VCTS BKN050CB
     FM030200 VRB05KT P6SM OVC050=



000
FTUS45 KCYS 021156 CCB
TAFCYS
TAF COR
KCYS 021156Z 0212/0312 26007KT P6SM OVC003
     FM021500 VRB05KT P6SM SCT007 SCT060
     FM021700 11009G17KT P6SM BKN050
     FM022000 09010KT P6SM VCTS BKN050CB
     FM030200 VRB05KT P6SM OVC050=



000
FTUS45 KCYS 021155 CCA
TAFLAR
TAF COR
KLAR 021155Z 0212/0312 07006KT P6SM SCT007 BKN080
     FM021500 05006KT P6SM SCT015 SCT060
     FM022000 04010G17KT P6SM VCTS BKN080CB
     FM030300 12007KT P6SM BKN100
     FM030800 16006KT P6SM FEW250=



000
FTUS45 KCYS 021155 CCA
TAFLAR
TAF COR
KLAR 021155Z 0212/0312 07006KT P6SM SCT007 BKN080
     FM021500 05006KT P6SM SCT015 SCT060
     FM022000 04010G17KT P6SM VCTS BKN080CB
     FM030300 12007KT P6SM BKN100
     FM030800 16006KT P6SM FEW250=



000
FTUS45 KCYS 021155 CCA
TAFLAR
TAF COR
KLAR 021155Z 0212/0312 07006KT P6SM SCT007 BKN080
     FM021500 05006KT P6SM SCT015 SCT060
     FM022000 04010G17KT P6SM VCTS BKN080CB
     FM030300 12007KT P6SM BKN100
     FM030800 16006KT P6SM FEW250=



000
FTUS45 KCYS 021141
TAFRWL
TAF
KRWL 021141Z 0212/0312 05008KT P6SM SCT250
     FM021800 01010KT P6SM BKN100
     FM022200 01008KT P6SM VCTS BKN100CB
     FM030400 05007KT P6SM SCT100 BKN200=



000
FTUS45 KCYS 021141
TAFCYS
TAF
KCYS 021141Z 0212/0312 06013G22KT P6SM OVC003
     FM021500 05007KT P6SM SCT007 SCT060
     FM021700 11009G17KT P6SM BKN050
     FM022000 09010KT P6SM VCTS BKN050CB
     FM030200 VRB05KT P6SM OVC050=



000
FTUS45 KCYS 021141
TAFRWL
TAF
KRWL 021141Z 0212/0312 05008KT P6SM SCT250
     FM021800 01010KT P6SM BKN100
     FM022200 01008KT P6SM VCTS BKN100CB
     FM030400 05007KT P6SM SCT100 BKN200=



000
FTUS45 KCYS 021141
TAFCYS
TAF
KCYS 021141Z 0212/0312 06013G22KT P6SM OVC003
     FM021500 05007KT P6SM SCT007 SCT060
     FM021700 11009G17KT P6SM BKN050
     FM022000 09010KT P6SM VCTS BKN050CB
     FM030200 VRB05KT P6SM OVC050=



000
FTUS45 KCYS 021141
TAFRWL
TAF
KRWL 021141Z 0212/0312 05008KT P6SM SCT250
     FM021800 01010KT P6SM BKN100
     FM022200 01008KT P6SM VCTS BKN100CB
     FM030400 05007KT P6SM SCT100 BKN200=



000
FTUS45 KCYS 021141
TAFRWL
TAF
KRWL 021141Z 0212/0312 05008KT P6SM SCT250
     FM021800 01010KT P6SM BKN100
     FM022200 01008KT P6SM VCTS BKN100CB
     FM030400 05007KT P6SM SCT100 BKN200=



000
FTUS45 KCYS 021141
TAFLAR
TAF
KLAR 021141Z 0212/0312 07006KT P6SM OVC007
     FM021500 05006KT P6SM SCT015 SCT060
     FM022000 04010G17KT P6SM VCTS BKN080CB
     FM030300 12007KT P6SM BKN100
     FM030800 16006KT P6SM FEW250=



000
FTUS45 KCYS 021141
TAFLAR
TAF
KLAR 021141Z 0212/0312 07006KT P6SM OVC007
     FM021500 05006KT P6SM SCT015 SCT060
     FM022000 04010G17KT P6SM VCTS BKN080CB
     FM030300 12007KT P6SM BKN100
     FM030800 16006KT P6SM FEW250=



000
FTUS45 KCYS 021141
TAFLAR
TAF
KLAR 021141Z 0212/0312 07006KT P6SM OVC007
     FM021500 05006KT P6SM SCT015 SCT060
     FM022000 04010G17KT P6SM VCTS BKN080CB
     FM030300 12007KT P6SM BKN100
     FM030800 16006KT P6SM FEW250=



000
FTUS45 KCYS 021141
TAFCYS
TAF
KCYS 021141Z 0212/0312 06013G22KT P6SM OVC003
     FM021500 05007KT P6SM SCT007 SCT060
     FM021700 11009G17KT P6SM BKN050
     FM022000 09010KT P6SM VCTS BKN050CB
     FM030200 VRB05KT P6SM OVC050=



000
FTUS45 KCYS 021141
TAFCYS
TAF
KCYS 021141Z 0212/0312 06013G22KT P6SM OVC003
     FM021500 05007KT P6SM SCT007 SCT060
     FM021700 11009G17KT P6SM BKN050
     FM022000 09010KT P6SM VCTS BKN050CB
     FM030200 VRB05KT P6SM OVC050=



000
FTUS45 KCYS 021141
TAFLAR
TAF
KLAR 021141Z 0212/0312 07006KT P6SM OVC007
     FM021500 05006KT P6SM SCT015 SCT060
     FM022000 04010G17KT P6SM VCTS BKN080CB
     FM030300 12007KT P6SM BKN100
     FM030800 16006KT P6SM FEW250=



000
FTUS45 KCYS 020957 AAA
TAFLAR
TAF AMD
KLAR 020957Z 0210/0306 18008KT P6SM VCSH SCT120
      TEMPO 0210/0212 07015G25KT SHRA BKN007
     FM021500 05010KT P6SM SCT120
     FM022000 09011G16KT P6SM VCTS BKN060CB=



000
FTUS45 KCYS 020957 AAA
TAFLAR
TAF AMD
KLAR 020957Z 0210/0306 18008KT P6SM VCSH SCT120
      TEMPO 0210/0212 07015G25KT SHRA BKN007
     FM021500 05010KT P6SM SCT120
     FM022000 09011G16KT P6SM VCTS BKN060CB=



000
FTUS45 KCYS 020955 AAA
TAFCYS
TAF AMD
KCYS 020955Z 0210/0306 36010G15KT P6SM VCTS BKN100CB
      TEMPO 0210/0212 06020G30KT TSRA BKN008CB
     FM021200 36011KT P6SM SCT050
     FM022000 05010G17KT P6SM VCTS BKN080CB=



000
FTUS45 KCYS 020955 AAA
TAFCYS
TAF AMD
KCYS 020955Z 0210/0306 36010G15KT P6SM VCTS BKN100CB
      TEMPO 0210/0212 06020G30KT TSRA BKN008CB
     FM021200 36011KT P6SM SCT050
     FM022000 05010G17KT P6SM VCTS BKN080CB=



000
FTUS45 KCYS 020948 RRA
TAFCYS
TAF
KCYS 020948Z 0210/0306 18008KT P6SM SCT150
     FM021200 36011KT P6SM SCT050
     FM022000 05010G17KT P6SM VCTS BKN080CB=



000
FTUS45 KCYS 020948 RRA
TAFLAR
TAF
KLAR 020948Z 0210/0306 18008KT P6SM SCT120
     FM021500 05010KT P6SM SCT120
     FM022000 09011G16KT P6SM VCTS BKN060CB=



000
FTUS45 KCYS 020948 RRA
TAFCYS
TAF
KCYS 020948Z 0210/0306 18008KT P6SM SCT150
     FM021200 36011KT P6SM SCT050
     FM022000 05010G17KT P6SM VCTS BKN080CB=



000
FTUS45 KCYS 020948 RRA
TAFRWL
TAF
KRWL 020948Z 0210/0306 05008KT P6SM SKC
     FM021900 01010KT P6SM BKN100=



000
FTUS45 KCYS 020948 RRA
TAFLAR
TAF
KLAR 020948Z 0210/0306 18008KT P6SM SCT120
     FM021500 05010KT P6SM SCT120
     FM022000 09011G16KT P6SM VCTS BKN060CB=



000
FTUS45 KCYS 020948 RRA
TAFRWL
TAF
KRWL 020948Z 0210/0306 05008KT P6SM SKC
     FM021900 01010KT P6SM BKN100=



000
FTUS45 KCYS 012325
TAFRWL
TAF
KRWL 012325Z 0200/0224 05009KT P6SM VCTS BKN100CB
      TEMPO 0200/0202 VRB25G40KT 4SM TSRA BKN040CB
     FM020200 05008KT P6SM BKN100
     FM020800 35007KT P6SM SCT100
     FM021900 01010KT P6SM VCTS BKN100CB=



000
FTUS45 KCYS 012325
TAFLAR
TAF
KLAR 012325Z 0200/0224 15010KT P6SM VCTS BKN120CB
      TEMPO 0200/0202 VRB20G35KT 5SM -TSRA BKN050CB
     FM020300 18008KT P6SM BKN120
     FM021500 05010G20KT P6SM SCT120
     FM022000 09011G22KT P6SM VCTS BKN080CB=



000
FTUS45 KCYS 012325
TAFCYS
TAF
KCYS 012325Z 0200/0224 23013G23KT P6SM VCTS BKN120CB
      TEMPO 0200/0202 VRB25G45KT 3SM TSRA BKN035CB
     FM020200 18008KT P6SM BKN120
     FM020700 33010KT P6SM BKN120
     FM021500 02010G20KT P6SM SCT120
     FM022000 05010G20KT P6SM VCTS BKN080CB=



000
FTUS45 KCYS 012325
TAFCYS
TAF
KCYS 012325Z 0200/0224 23013G23KT P6SM VCTS BKN120CB
      TEMPO 0200/0202 VRB25G45KT 3SM TSRA BKN035CB
     FM020200 18008KT P6SM BKN120
     FM020700 33010KT P6SM BKN120
     FM021500 02010G20KT P6SM SCT120
     FM022000 05010G20KT P6SM VCTS BKN080CB=



000
FTUS45 KCYS 012325
TAFRWL
TAF
KRWL 012325Z 0200/0224 05009KT P6SM VCTS BKN100CB
      TEMPO 0200/0202 VRB25G40KT 4SM TSRA BKN040CB
     FM020200 05008KT P6SM BKN100
     FM020800 35007KT P6SM SCT100
     FM021900 01010KT P6SM VCTS BKN100CB=



000
FTUS45 KCYS 012325
TAFLAR
TAF
KLAR 012325Z 0200/0224 15010KT P6SM VCTS BKN120CB
      TEMPO 0200/0202 VRB20G35KT 5SM -TSRA BKN050CB
     FM020300 18008KT P6SM BKN120
     FM021500 05010G20KT P6SM SCT120
     FM022000 09011G22KT P6SM VCTS BKN080CB=



000
FTUS45 KCYS 012325
TAFCYS
TAF
KCYS 012325Z 0200/0224 23013G23KT P6SM VCTS BKN120CB
      TEMPO 0200/0202 VRB25G45KT 3SM TSRA BKN035CB
     FM020200 18008KT P6SM BKN120
     FM020700 33010KT P6SM BKN120
     FM021500 02010G20KT P6SM SCT120
     FM022000 05010G20KT P6SM VCTS BKN080CB=



000
FTUS45 KCYS 012325
TAFLAR
TAF
KLAR 012325Z 0200/0224 15010KT P6SM VCTS BKN120CB
      TEMPO 0200/0202 VRB20G35KT 5SM -TSRA BKN050CB
     FM020300 18008KT P6SM BKN120
     FM021500 05010G20KT P6SM SCT120
     FM022000 09011G22KT P6SM VCTS BKN080CB=



000
FTUS45 KCYS 012325
TAFRWL
TAF
KRWL 012325Z 0200/0224 05009KT P6SM VCTS BKN100CB
      TEMPO 0200/0202 VRB25G40KT 4SM TSRA BKN040CB
     FM020200 05008KT P6SM BKN100
     FM020800 35007KT P6SM SCT100
     FM021900 01010KT P6SM VCTS BKN100CB=



000
FTUS45 KCYS 012325
TAFRWL
TAF
KRWL 012325Z 0200/0224 05009KT P6SM VCTS BKN100CB
      TEMPO 0200/0202 VRB25G40KT 4SM TSRA BKN040CB
     FM020200 05008KT P6SM BKN100
     FM020800 35007KT P6SM SCT100
     FM021900 01010KT P6SM VCTS BKN100CB=



000
FTUS45 KCYS 012325
TAFCYS
TAF
KCYS 012325Z 0200/0224 23013G23KT P6SM VCTS BKN120CB
      TEMPO 0200/0202 VRB25G45KT 3SM TSRA BKN035CB
     FM020200 18008KT P6SM BKN120
     FM020700 33010KT P6SM BKN120
     FM021500 02010G20KT P6SM SCT120
     FM022000 05010G20KT P6SM VCTS BKN080CB=



000
FTUS45 KCYS 012325
TAFLAR
TAF
KLAR 012325Z 0200/0224 15010KT P6SM VCTS BKN120CB
      TEMPO 0200/0202 VRB20G35KT 5SM -TSRA BKN050CB
     FM020300 18008KT P6SM BKN120
     FM021500 05010G20KT P6SM SCT120
     FM022000 09011G22KT P6SM VCTS BKN080CB=



000
FTUS45 KCYS 012306 AAB
TAFRWL
TAF AMD
KRWL 012306Z 0123/0218 28010G20KT P6SM VCTS BKN100CB
      TEMPO 0123/0201 VRB20G35KT 3/4SM +TSRA BKN025CB
     FM020300 03006KT P6SM SCT100=



000
FTUS45 KCYS 012306 AAB
TAFRWL
TAF AMD
KRWL 012306Z 0123/0218 28010G20KT P6SM VCTS BKN100CB
      TEMPO 0123/0201 VRB20G35KT 3/4SM +TSRA BKN025CB
     FM020300 03006KT P6SM SCT100=



000
FTUS45 KCYS 012306 AAB
TAFRWL
TAF AMD
KRWL 012306Z 0123/0218 28010G20KT P6SM VCTS BKN100CB
      TEMPO 0123/0201 VRB20G35KT 3/4SM +TSRA BKN025CB
     FM020300 03006KT P6SM SCT100=



000
FTUS45 KCYS 012246 AAA
TAFRWL
TAF AMD
KRWL 012246Z 0123/0218 28010G20KT P6SM VCTS BKN100CB
      TEMPO 0123/0201 VRB20G35KT 4SM TSRA BKN050CB
     FM020300 03006KT P6SM SCT100=



000
FTUS45 KCYS 012246 AAA
TAFRWL
TAF AMD
KRWL 012246Z 0123/0218 28010G20KT P6SM VCTS BKN100CB
      TEMPO 0123/0201 VRB20G35KT 4SM TSRA BKN050CB
     FM020300 03006KT P6SM SCT100=



000
FTUS45 KCYS 012121 AAA
TAFCYS
TAF AMD
KCYS 012121Z 0121/0218 15008KT P6SM VCTS BKN070CB
      TEMPO 0121/0123 VRB20G40KT 5SM -TSRA BKN040CB
     FM020200 25006KT P6SM BKN100
     FM021200 02010KT 3SM BR SCT005 BKN012
     FM021600 02010KT P6SM SCT012 BKN025=



000
FTUS45 KCYS 012121 AAA
TAFCYS
TAF AMD
KCYS 012121Z 0121/0218 15008KT P6SM VCTS BKN070CB
      TEMPO 0121/0123 VRB20G40KT 5SM -TSRA BKN040CB
     FM020200 25006KT P6SM BKN100
     FM021200 02010KT 3SM BR SCT005 BKN012
     FM021600 02010KT P6SM SCT012 BKN025=



000
FTUS45 KCYS 012121 AAA
TAFCYS
TAF AMD
KCYS 012121Z 0121/0218 15008KT P6SM VCTS BKN070CB
      TEMPO 0121/0123 VRB20G40KT 5SM -TSRA BKN040CB
     FM020200 25006KT P6SM BKN100
     FM021200 02010KT 3SM BR SCT005 BKN012
     FM021600 02010KT P6SM SCT012 BKN025=



000
FTUS45 KCYS 011720
TAFCYS
TAF
KCYS 011720Z 0118/0218 04008KT P6SM SCT150
     FM012000 15008KT P6SM VCTS BKN090CB
     FM020200 25006KT P6SM BKN100
     FM021200 02010KT 3SM BR SCT005 BKN012
     FM021600 02010KT P6SM SCT012 BKN025=



000
FTUS45 KCYS 011720
TAFLAR
TAF
KLAR 011720Z 0118/0218 01008KT P6SM BKN090
     FM012000 03009KT P6SM VCTS BKN090CB
     FM020200 14009KT P6SM SCT100=



000
FTUS45 KCYS 011720
TAFRWL
TAF
KRWL 011720Z 0118/0218 35008KT P6SM SCT100
     FM012200 28010G20KT P6SM VCTS BKN100CB
     FM020300 03006KT P6SM SCT100=



000
FTUS45 KCYS 011720
TAFLAR
TAF
KLAR 011720Z 0118/0218 01008KT P6SM BKN090
     FM012000 03009KT P6SM VCTS BKN090CB
     FM020200 14009KT P6SM SCT100=



000
FTUS45 KCYS 011720
TAFCYS
TAF
KCYS 011720Z 0118/0218 04008KT P6SM SCT150
     FM012000 15008KT P6SM VCTS BKN090CB
     FM020200 25006KT P6SM BKN100
     FM021200 02010KT 3SM BR SCT005 BKN012
     FM021600 02010KT P6SM SCT012 BKN025=



000
FTUS45 KCYS 011720
TAFRWL
TAF
KRWL 011720Z 0118/0218 35008KT P6SM SCT100
     FM012200 28010G20KT P6SM VCTS BKN100CB
     FM020300 03006KT P6SM SCT100=



000
FTUS45 KCYS 011720
TAFCYS
TAF
KCYS 011720Z 0118/0218 04008KT P6SM SCT150
     FM012000 15008KT P6SM VCTS BKN090CB
     FM020200 25006KT P6SM BKN100
     FM021200 02010KT 3SM BR SCT005 BKN012
     FM021600 02010KT P6SM SCT012 BKN025=



000
FTUS45 KCYS 011720
TAFLAR
TAF
KLAR 011720Z 0118/0218 01008KT P6SM BKN090
     FM012000 03009KT P6SM VCTS BKN090CB
     FM020200 14009KT P6SM SCT100=



000
FTUS45 KCYS 011720
TAFRWL
TAF
KRWL 011720Z 0118/0218 35008KT P6SM SCT100
     FM012200 28010G20KT P6SM VCTS BKN100CB
     FM020300 03006KT P6SM SCT100=



000
FTUS45 KCYS 011720
TAFRWL
TAF
KRWL 011720Z 0118/0218 35008KT P6SM SCT100
     FM012200 28010G20KT P6SM VCTS BKN100CB
     FM020300 03006KT P6SM SCT100=



000
FTUS45 KCYS 011720
TAFLAR
TAF
KLAR 011720Z 0118/0218 01008KT P6SM BKN090
     FM012000 03009KT P6SM VCTS BKN090CB
     FM020200 14009KT P6SM SCT100=



000
FTUS45 KCYS 011720
TAFCYS
TAF
KCYS 011720Z 0118/0218 04008KT P6SM SCT150
     FM012000 15008KT P6SM VCTS BKN090CB
     FM020200 25006KT P6SM BKN100
     FM021200 02010KT 3SM BR SCT005 BKN012
     FM021600 02010KT P6SM SCT012 BKN025=



    US Dept of Commerce
    National Oceanic and Atmospheric Administration
    National Weather Service
    1325 East West Highway
    Silver Spring, MD 20910
    Page Author: NWS Internet Services Team
Disclaimer
Information Quality
Credits
Glossary
Privacy Policy
Freedom of Information Act (FOIA)
About Us
Career Opportunities